Terminal Aerodrome Forecast
Issued by NWS

Home | Current Version | Previous Version | Text Only | Print | Product List | Glossary On
Versions: 1 2 3 4 5 6 7 8 9 10 11 12
000
FTUS45 KRIW 150500
TAFCPR
TAF
KCPR 150525Z 1506/1606 VRB05KT 1 1/2SM -SN SCT008 OVC015
     FM151400 VRB05KT 4SM -SN SCT012 OVC024
     FM152100 24006KT P6SM VCSH BKN035
     FM160000 24008KT P6SM SCT040 BKN080
     FM160400 23009KT P6SM SCT080=

USA.gov is the U.S. government's official web portal to all federal, state and local government web resources and services.